Time;durP1;ratioP1;P1;durP2;ratioP2;P2;SDS_P1;SDS_P2;PMS_P1;PMS_P2;Temp;Humidity;BMP_temperature;BMP_pressure;BME280_temperature;BME280_humidity;BME280_pressure;Samples;Min_cycle;Max_cycle;Signal;HPM_P1;HPM_P2
2021/01/16 00:00:36;;;;;;;11.18;6.55;;;-1.30;99.90;;;;;;4973249;28;20027;-78
2021/01/16 00:03:09;;;;;;;10.48;6.50;;;-1.30;99.90;;;;;;4972975;28;20038;-78
2021/01/16 00:05:34;;;;;;;13.68;5.88;;;-1.40;99.90;;;;;;4973065;28;20399;-78
2021/01/16 00:08:09;;;;;;;12.48;6.13;;;-1.40;99.90;;;;;;4973280;28;20114;-77
2021/01/16 00:10:40;;;;;;;11.50;6.95;;;-1.40;99.90;;;;;;4972844;28;20038;-77
2021/01/16 00:13:10;;;;;;;16.02;7.50;;;-1.40;99.90;;;;;;4972803;28;20046;-78
2021/01/16 00:15:36;;;;;;;12.13;6.57;;;-1.40;99.90;;;;;;4973035;28;20034;-77
2021/01/16 00:18:10;;;;;;;12.93;6.43;;;-1.30;99.90;;;;;;4973039;28;20027;-78
2021/01/16 00:20:38;;;;;;;12.43;6.97;;;-1.40;99.90;;;;;;4972959;28;20046;-78
2021/01/16 00:23:05;;;;;;;10.63;6.45;;;-1.30;99.90;;;;;;4972764;28;20031;-78
2021/01/16 00:25:31;;;;;;;13.00;6.35;;;-1.20;99.90;;;;;;4972591;28;20703;-78
2021/01/16 00:27:57;;;;;;;11.18;5.63;;;-1.20;99.90;;;;;;4968354;28;20050;-78
2021/01/16 00:30:34;;;;;;;11.52;6.35;;;-1.20;99.90;;;;;;4952467;29;20035;-77
2021/01/16 00:33:02;;;;;;;9.73;6.05;;;-1.20;99.90;;;;;;4952308;29;20118;-77
2021/01/16 00:35:31;;;;;;;10.80;5.43;;;-1.20;99.90;;;;;;4952269;29;20027;-77
2021/01/16 00:37:57;;;;;;;9.95;6.10;;;-1.20;99.90;;;;;;4966496;28;20086;-77
2021/01/16 00:40:25;;;;;;;10.52;5.70;;;-1.20;99.90;;;;;;4972798;28;20035;-78
2021/01/16 00:42:55;;;;;;;12.15;6.47;;;-1.20;99.90;;;;;;4972577;28;20031;-78
2021/01/16 00:45:22;;;;;;;15.93;6.80;;;-1.10;99.90;;;;;;4971316;28;20034;-78
2021/01/16 00:47:48;;;;;;;13.23;5.45;;;-1.20;99.90;;;;;;4972440;28;20030;-78
2021/01/16 00:50:20;;;;;;;10.18;5.65;;;-1.10;99.90;;;;;;4972772;28;20026;-78
2021/01/16 00:52:57;;;;;;;11.45;5.72;;;-1.00;99.90;;;;;;4972775;28;20023;-77
2021/01/16 00:55:23;;;;;;;18.40;6.32;;;-1.00;99.90;;;;;;4972460;28;20027;-78
2021/01/16 00:57:49;;;;;;;10.38;5.68;;;-1.00;99.90;;;;;;4972360;28;20034;-78
2021/01/16 01:00:15;;;;;;;12.25;6.10;;;-1.00;99.90;;;;;;4987594;28;20027;-78
2021/01/16 01:02:41;;;;;;;9.77;6.10;;;-1.00;99.90;;;;;;4974323;28;20031;-78
2021/01/16 01:05:09;;;;;;;11.85;6.30;;;-1.00;99.90;;;;;;4976254;28;20034;-78
2021/01/16 01:07:34;;;;;;;9.48;6.20;;;-1.00;99.90;;;;;;4975182;28;20042;-77
2021/01/16 01:10:00;;;;;;;10.35;6.20;;;-1.00;99.90;;;;;;4976213;28;20030;-78
2021/01/16 01:12:25;;;;;;;13.43;6.22;;;-1.00;99.90;;;;;;4976060;28;20034;-78
2021/01/16 01:14:51;;;;;;;9.48;5.20;;;-1.00;99.90;;;;;;4976031;28;20023;-77
2021/01/16 01:17:18;;;;;;;11.80;5.63;;;-1.00;99.90;;;;;;4975860;28;20446;-78
2021/01/16 01:19:44;;;;;;;10.93;5.85;;;-1.00;99.90;;;;;;4976300;28;20054;-78
2021/01/16 01:22:10;;;;;;;12.70;6.80;;;-1.00;99.90;;;;;;4976122;28;20380;-78
2021/01/16 01:24:37;;;;;;;12.48;6.38;;;-1.00;99.90;;;;;;4975947;28;20113;-77
2021/01/16 01:27:04;;;;;;;10.40;5.53;;;-1.00;99.90;;;;;;4971509;28;20039;-77
2021/01/16 01:29:30;;;;;;;12.25;6.28;;;-1.00;99.90;;;;;;4955494;29;20033;-78
2021/01/16 01:31:55;;;;;;;10.23;5.55;;;-1.00;99.90;;;;;;4955387;28;20036;-77
2021/01/16 01:34:21;;;;;;;10.88;5.28;;;-1.00;99.90;;;;;;4956429;29;20540;-78
2021/01/16 01:36:46;;;;;;;10.30;6.20;;;-1.00;99.90;;;;;;4961456;28;20038;-77
2021/01/16 01:39:12;;;;;;;8.68;5.18;;;-1.00;99.90;;;;;;4975867;28;20030;-78
2021/01/16 01:41:38;;;;;;;9.90;5.47;;;-1.00;99.90;;;;;;4970847;28;20059;-78
2021/01/16 01:44:05;;;;;;;11.85;6.57;;;-1.00;99.90;;;;;;4956050;28;20054;-78
2021/01/16 01:46:35;;;;;;;12.93;6.13;;;-1.00;99.90;;;;;;4974561;28;20031;-78
2021/01/16 01:49:02;;;;;;;14.10;7.50;;;-1.00;99.90;;;;;;4975811;28;20110;-77
2021/01/16 01:51:31;;;;;;;12.38;6.45;;;-0.90;99.90;;;;;;4975474;28;20089;-78
2021/01/16 01:53:59;;;;;;;13.07;5.95;;;-0.90;99.90;;;;;;4975422;28;20014;-77
2021/01/16 01:56:25;;;;;;;15.27;6.05;;;-0.90;99.90;;;;;;4975335;28;20037;-77
2021/01/16 01:58:52;;;;;;;12.18;6.32;;;-0.90;99.90;;;;;;4975579;28;20611;-77
2021/01/16 02:01:19;;;;;;;12.00;5.32;;;-0.90;99.90;;;;;;4990363;28;20035;-77
2021/01/16 02:03:47;;;;;;;9.18;5.10;;;-0.90;99.90;;;;;;4975267;28;20400;-78
2021/01/16 02:06:13;;;;;;;14.18;6.88;;;-0.90;99.90;;;;;;4975471;28;20043;-77
2021/01/16 02:08:38;;;;;;;10.80;6.45;;;-0.90;99.90;;;;;;4975367;28;20030;-77
2021/01/16 02:11:04;;;;;;;10.18;5.78;;;-1.00;99.90;;;;;;4974959;28;20050;-77
2021/01/16 02:13:29;;;;;;;12.82;6.32;;;-1.00;99.90;;;;;;4973318;28;20030;-78
2021/01/16 02:16:24;;;;;;;13.75;6.32;;;-1.00;99.90;;;;;;4974894;28;20030;-78
2021/01/16 02:18:53;;;;;;;11.18;6.22;;;-1.00;99.90;;;;;;4968534;28;20047;-78
2021/01/16 02:21:19;;;;;;;10.82;6.20;;;-1.00;99.90;;;;;;4990084;28;20114;-78
2021/01/16 02:24:03;;;;;;;10.85;6.32;;;-1.00;99.90;;;;;;4974989;28;20034;-77
2021/01/16 02:27:16;;;;;;;10.20;6.25;;;-1.00;99.90;;;;;;4973478;28;20023;-78
2021/01/16 02:29:42;;;;;;;11.55;5.93;;;-1.10;99.90;;;;;;4939843;28;20032;-78
2021/01/16 02:32:08;;;;;;;11.90;6.13;;;-1.10;99.90;;;;;;4973699;28;20491;-78
2021/01/16 02:34:39;;;;;;;9.57;5.50;;;-1.00;99.90;;;;;;4974545;28;20023;-78
2021/01/16 02:37:41;;;;;;;13.55;6.55;;;-1.00;99.90;;;;;;4975087;28;20030;-78
2021/01/16 02:40:22;;;;;;;11.32;6.60;;;-1.00;99.90;;;;;;4973605;28;20494;-78
2021/01/16 02:43:11;;;;;;;11.80;6.10;;;-1.10;99.90;;;;;;4973271;28;20030;-78
2021/01/16 02:45:43;;;;;;;11.95;6.60;;;-1.20;99.90;;;;;;4974445;28;20407;-78
2021/01/16 02:48:22;;;;;;;10.27;6.53;;;-1.40;99.90;;;;;;4973345;28;20026;-77
2021/01/16 02:50:52;;;;;;;11.93;6.00;;;-1.50;99.90;;;;;;4973339;28;20065;-77
2021/01/16 02:53:24;;;;;;;15.75;7.00;;;-1.70;99.90;;;;;;4974323;28;20098;-77
2021/01/16 02:55:51;;;;;;;11.00;6.10;;;-1.70;99.90;;;;;;4974272;28;20026;-77
2021/01/16 02:58:20;;;;;;;10.40;6.10;;;-1.80;99.90;;;;;;4953964;28;20027;-78
2021/01/16 03:00:46;;;;;;;13.48;5.85;;;-1.90;99.90;;;;;;4955183;29;20035;-78
2021/01/16 03:03:12;;;;;;;15.15;6.60;;;-2.00;99.90;;;;;;4968214;28;20023;-78
2021/01/16 03:05:38;;;;;;;14.43;7.25;;;-2.10;99.90;;;;;;4973913;28;20030;-77
2021/01/16 03:08:04;;;;;;;12.73;6.75;;;-2.20;99.90;;;;;;4974333;28;20031;-78
2021/01/16 03:10:32;;;;;;;13.07;6.28;;;-2.30;99.90;;;;;;4974231;28;20026;-78
2021/01/16 03:12:58;;;;;;;16.55;6.07;;;-2.30;99.90;;;;;;4973726;28;20030;-77
2021/01/16 03:15:24;;;;;;;9.57;5.70;;;-2.30;99.90;;;;;;4973962;28;20531;-78
2021/01/16 03:17:57;;;;;;;11.65;6.65;;;-2.30;99.90;;;;;;4972722;28;20085;-78
2021/01/16 03:20:24;;;;;;;13.20;6.85;;;-2.30;99.90;;;;;;4974225;28;20372;-77
2021/01/16 03:22:51;;;;;;;11.20;6.88;;;-2.30;99.90;;;;;;4973801;28;20030;-77
2021/01/16 03:25:18;;;;;;;9.98;6.03;;;-2.30;99.90;;;;;;4988718;28;20122;-77
2021/01/16 03:27:44;;;;;;;11.85;7.35;;;-2.40;99.90;;;;;;4973669;28;20066;-77
2021/01/16 03:30:10;;;;;;;12.75;7.00;;;-2.40;99.90;;;;;;4972579;28;20085;-77
2021/01/16 03:32:36;;;;;;;16.95;6.90;;;-2.40;99.90;;;;;;4972291;28;20027;-78
2021/01/16 03:35:02;;;;;;;12.85;6.20;;;-2.30;99.90;;;;;;4972859;28;20078;-77
2021/01/16 03:37:28;;;;;;;13.52;6.95;;;-2.30;99.90;;;;;;4972836;28;20027;-77
2021/01/16 03:39:53;;;;;;;11.30;6.22;;;-2.30;99.90;;;;;;4973775;28;20089;-77
2021/01/16 03:42:19;;;;;;;10.70;6.72;;;-2.30;99.90;;;;;;4973095;28;20050;-77
2021/01/16 03:44:45;;;;;;;10.98;5.90;;;-2.40;99.90;;;;;;4973535;28;20050;-78
2021/01/16 03:47:10;;;;;;;11.88;5.88;;;-2.40;99.90;;;;;;4973420;28;20042;-78
2021/01/16 03:49:36;;;;;;;11.68;6.78;;;-2.40;99.90;;;;;;4972381;28;20030;-78
2021/01/16 03:52:03;;;;;;;12.27;6.57;;;-2.40;99.90;;;;;;4968669;28;20082;-77
2021/01/16 03:54:29;;;;;;;13.00;7.35;;;-2.50;99.90;;;;;;4953980;29;20059;-77
2021/01/16 03:56:54;;;;;;;11.85;7.45;;;-2.50;99.90;;;;;;4962577;28;20120;-77
2021/01/16 03:59:20;;;;;;;12.55;6.97;;;-2.50;99.90;;;;;;4973474;28;20049;-78
2021/01/16 04:01:46;;;;;;;12.05;7.38;;;-2.60;99.90;;;;;;4973033;28;20023;-78
2021/01/16 04:04:12;;;;;;;12.88;6.45;;;-2.60;99.90;;;;;;4971988;28;20107;-77
2021/01/16 04:06:37;;;;;;;13.20;6.88;;;-2.70;99.90;;;;;;4973365;28;20043;-77
2021/01/16 04:09:03;;;;;;;18.10;7.50;;;-2.80;99.90;;;;;;4973363;28;20030;-77
2021/01/16 04:11:29;;;;;;;13.68;7.63;;;-2.90;99.90;;;;;;4972808;28;20031;-77
2021/01/16 04:13:55;;;;;;;11.52;7.22;;;-3.00;99.90;;;;;;4973142;28;20479;-77
2021/01/16 04:16:24;;;;;;;12.23;7.15;;;-3.00;99.90;;;;;;4971949;28;20038;-77
2021/01/16 04:18:50;;;;;;;11.63;7.07;;;-3.10;99.90;;;;;;4973276;28;20089;-78
2021/01/16 04:21:15;;;;;;;14.10;7.22;;;-3.00;99.90;;;;;;4972851;28;20031;-77
2021/01/16 04:23:41;;;;;;;12.95;7.60;;;-3.00;99.90;;;;;;4973066;28;20033;-77
2021/01/16 04:26:07;;;;;;;13.10;7.70;;;-2.90;99.90;;;;;;4972783;28;20555;-77
2021/01/16 04:28:32;;;;;;;11.85;6.68;;;-2.80;99.90;;;;;;4971835;28;20054;-77
2021/01/16 04:30:58;;;;;;;15.80;7.88;;;-2.80;99.90;;;;;;4971770;28;20019;-77
2021/01/16 04:33:23;;;;;;;12.05;6.88;;;-2.70;99.90;;;;;;4973054;28;20026;-77
2021/01/16 04:35:49;;;;;;;18.83;7.88;;;-2.70;99.90;;;;;;4971657;28;20086;-77
2021/01/16 04:38:14;;;;;;;12.73;7.15;;;-2.70;99.90;;;;;;4978260;28;20088;-77
2021/01/16 04:40:40;;;;;;;12.98;6.80;;;-2.70;99.90;;;;;;4978375;28;20027;-77
2021/01/16 04:43:06;;;;;;;14.00;7.35;;;-2.80;99.90;;;;;;4979266;28;20557;-77
2021/01/16 04:45:33;;;;;;;13.18;7.07;;;-2.80;99.90;;;;;;4979205;28;20026;-77
2021/01/16 04:48:01;;;;;;;14.50;7.88;;;-2.90;99.90;;;;;;4977878;28;20030;-77
2021/01/16 04:50:29;;;;;;;10.82;6.95;;;-2.90;99.90;;;;;;4978029;28;20472;-78
2021/01/16 04:53:05;;;;;;;15.30;8.43;;;-3.00;99.90;;;;;;4979031;28;20041;-78
2021/01/16 04:55:33;;;;;;;13.70;7.57;;;-3.00;99.90;;;;;;4977949;28;20101;-78
2021/01/16 04:58:07;;;;;;;12.52;7.78;;;-3.00;99.90;;;;;;4974590;28;20105;-78
2021/01/16 05:00:42;;;;;;;13.23;6.75;;;-3.10;99.90;;;;;;4959894;28;20027;-77
2021/01/16 05:03:10;;;;;;;15.73;6.97;;;-3.20;99.90;;;;;;4959890;28;20824;-77
2021/01/16 05:05:41;;;;;;;12.88;6.88;;;-3.30;99.90;;;;;;4960347;28;20138;-77
2021/01/16 05:08:08;;;;;;;15.60;7.50;;;-3.40;99.90;;;;;;4977922;28;20082;-77
2021/01/16 05:10:36;;;;;;;17.85;8.05;;;-3.40;99.90;;;;;;4979107;28;20065;-77
2021/01/16 05:13:12;;;;;;;11.50;6.65;;;-3.50;99.90;;;;;;4978899;28;20030;-78
2021/01/16 05:15:41;;;;;;;11.35;6.90;;;-3.60;99.90;;;;;;4978959;28;20022;-77
2021/01/16 05:18:14;;;;;;;12.32;6.85;;;-3.60;99.90;;;;;;4978650;28;20027;-78
2021/01/16 05:20:44;;;;;;;;;;;-3.70;99.90;;;;;;4979520;28;20026;-77
2021/01/16 05:23:14;;;;;;;14.95;7.72;;;-3.70;99.90;;;;;;4979036;28;19942;-77
2021/01/16 05:25:46;;;;;;;14.55;7.25;;;-3.80;99.90;;;;;;4978721;28;20446;-77
2021/01/16 05:28:14;;;;;;;11.93;6.85;;;-3.80;99.90;;;;;;4977601;28;20030;-77
2021/01/16 05:31:03;;;;;;;13.50;7.70;;;-3.80;99.90;;;;;;4977568;28;20129;-77
2021/01/16 05:33:34;;;;;;;22.23;8.65;;;-3.80;99.90;;;;;;4979056;28;20085;-77
2021/01/16 05:36:02;;;;;;;15.73;7.78;;;-3.90;99.90;;;;;;4977366;28;20026;-77
2021/01/16 05:38:36;;;;;;;14.35;7.75;;;-4.00;99.90;;;;;;4978893;28;20038;-77
2021/01/16 05:41:04;;;;;;;13.60;7.55;;;-4.00;99.90;;;;;;4993370;28;20027;-77
2021/01/16 05:43:31;;;;;;;16.98;7.60;;;-4.10;99.90;;;;;;4977167;28;20046;-78
2021/01/16 05:45:59;;;;;;;14.30;7.82;;;-4.10;99.90;;;;;;4978547;28;20058;-77
2021/01/16 05:48:29;;;;;;;13.00;7.13;;;-4.20;99.90;;;;;;4976808;28;20023;-77
2021/01/16 05:51:01;;;;;;;13.68;8.35;;;-4.20;99.90;;;;;;4975694;28;20027;-77
2021/01/16 05:53:28;;;;;;;18.15;8.90;;;-4.30;99.90;;;;;;4975443;28;20026;-77
2021/01/16 05:55:54;;;;;;;15.95;7.80;;;-4.30;99.90;;;;;;4975437;28;20506;-77
2021/01/16 05:58:21;;;;;;;17.73;9.10;;;-4.30;99.90;;;;;;4972926;28;20031;-77
2021/01/16 06:00:49;;;;;;;16.10;7.95;;;-4.30;99.90;;;;;;4975659;28;20069;-77
2021/01/16 06:03:17;;;;;;;15.30;8.20;;;-4.30;99.90;;;;;;4974098;28;20399;-78
2021/01/16 06:05:51;;;;;;;11.90;7.28;;;-4.30;99.90;;;;;;4975402;28;20037;-77
2021/01/16 06:08:20;;;;;;;17.38;9.50;;;-4.30;99.90;;;;;;4990311;28;20086;-77
2021/01/16 06:10:56;;;;;;;14.43;8.15;;;-4.30;99.90;;;;;;4975313;28;20022;-77
2021/01/16 06:13:26;;;;;;;16.30;8.55;;;-4.30;99.90;;;;;;4954852;28;20448;-78
2021/01/16 06:15:54;;;;;;;13.88;8.40;;;-4.40;99.90;;;;;;4954669;28;20058;-77
2021/01/16 06:18:35;;;;;;;14.32;7.95;;;-4.40;99.90;;;;;;4955905;28;20035;-77
2021/01/16 06:21:02;;;;;;;17.30;8.85;;;-4.40;99.90;;;;;;4955890;28;20078;-78
2021/01/16 06:23:30;;;;;;;14.48;8.38;;;-4.40;99.90;;;;;;4955851;29;20070;-78
2021/01/16 06:25:57;;;;;;;18.00;8.27;;;-4.50;99.90;;;;;;4954902;28;20484;-78
2021/01/16 06:28:25;;;;;;;17.83;8.95;;;-4.40;99.90;;;;;;4975036;28;20069;-78
2021/01/16 06:30:58;;;;;;;14.35;8.27;;;-4.40;99.90;;;;;;4973737;28;20033;-77
2021/01/16 06:33:29;;;;;;;14.85;7.80;;;-4.40;99.90;;;;;;4974809;28;20030;-78
2021/01/16 06:36:00;;;;;;;19.92;9.43;;;-4.30;99.90;;;;;;4974735;28;20040;-77
2021/01/16 06:38:34;;;;;;;18.02;9.05;;;-4.20;99.90;;;;;;4974965;28;20105;-78
2021/01/16 06:41:16;;;;;;;20.67;9.65;;;-4.20;99.90;;;;;;4974527;28;20395;-78
2021/01/16 06:43:46;;;;;;;20.58;10.95;;;-4.10;99.90;;;;;;4955408;28;20427;-78
2021/01/16 06:46:13;;;;;;;16.10;8.82;;;-4.00;99.90;;;;;;4955565;28;20065;-78
2021/01/16 06:48:41;;;;;;;21.52;10.73;;;-4.00;99.90;;;;;;4959486;28;20074;-78
2021/01/16 06:51:27;;;;;;;18.63;9.73;;;-3.90;99.90;;;;;;4973345;28;20030;-78
2021/01/16 06:53:53;;;;;;;17.40;9.05;;;-4.00;99.90;;;;;;4974461;28;20023;-78
2021/01/16 06:56:26;;;;;;;18.83;9.45;;;-4.00;99.90;;;;;;4974429;28;20065;-78
2021/01/16 06:58:55;;;;;;;18.30;10.13;;;-4.00;99.90;;;;;;4974530;28;20019;-78
2021/01/16 07:01:31;;;;;;;19.25;10.55;;;-3.90;99.90;;;;;;4972889;28;20574;-77
2021/01/16 07:04:03;;;;;;;18.85;9.85;;;-3.90;99.90;;;;;;4974366;28;20402;-78
2021/01/16 07:06:45;;;;;;;19.85;10.38;;;-3.90;99.90;;;;;;4972549;28;20058;-78
2021/01/16 07:09:17;;;;;;;25.00;10.32;;;-3.90;99.90;;;;;;4955142;29;20046;-78
2021/01/16 07:11:51;;;;;;;19.08;10.48;;;-3.80;99.90;;;;;;4963288;28;20042;-78
2021/01/16 07:14:17;;;;;;;22.08;10.57;;;-3.80;99.90;;;;;;4974168;28;20432;-78
2021/01/16 07:16:44;;;;;;;20.70;10.13;;;-3.80;99.90;;;;;;4974202;28;20019;-78
2021/01/16 07:19:11;;;;;;;19.98;10.32;;;-3.70;99.90;;;;;;4974114;28;20030;-77
2021/01/16 07:21:41;;;;;;;21.05;10.95;;;-3.60;99.90;;;;;;4972811;28;20483;-77
2021/01/16 07:24:09;;;;;;;21.63;10.63;;;-3.50;99.90;;;;;;4972722;28;20380;-78
2021/01/16 07:26:36;;;;;;;29.75;11.55;;;-3.50;99.90;;;;;;4969343;28;20038;-78
2021/01/16 07:29:05;;;;;;;26.45;11.70;;;-3.40;99.90;;;;;;4953436;29;20031;-77
2021/01/16 07:31:38;;;;;;;22.83;11.60;;;-3.30;99.90;;;;;;4954485;28;20127;-78
2021/01/16 07:34:04;;;;;;;26.50;11.57;;;-3.20;99.90;;;;;;4954553;29;20122;-78
2021/01/16 07:36:31;;;;;;;30.35;13.10;;;-3.10;99.90;;;;;;4955506;28;20103;-78
2021/01/16 07:39:03;;;;;;;29.92;14.80;;;-3.10;99.90;;;;;;4973838;28;20025;-78
2021/01/16 07:41:33;;;;;;;39.08;14.18;;;-3.00;99.90;;;;;;4972224;28;20031;-78
2021/01/16 07:44:11;;;;;;;28.67;14.00;;;-2.80;99.90;;;;;;4973495;28;20504;-78
2021/01/16 07:46:41;;;;;;;37.92;14.18;;;-2.60;99.90;;;;;;4972247;28;20039;-78
2021/01/16 07:49:07;;;;;;;31.13;15.02;;;-2.50;99.90;;;;;;4988243;28;20394;-77
2021/01/16 07:51:37;;;;;;;36.25;14.90;;;-2.40;99.90;;;;;;4973270;28;20023;-78
2021/01/16 07:54:05;;;;;;;32.30;14.75;;;-2.40;99.90;;;;;;4972167;28;20054;-78
2021/01/16 07:56:37;;;;;;;33.60;16.20;;;-2.30;99.90;;;;;;4971956;28;20026;-78
2021/01/16 07:59:20;;;;;;;37.08;16.65;;;-2.20;99.90;;;;;;4972330;28;20110;-78
2021/01/16 08:02:19;;;;;;;38.97;17.77;;;-2.20;99.90;;;;;;4971566;28;20022;-78
2021/01/16 08:05:07;;;;;;;35.33;15.77;;;-2.10;99.90;;;;;;4972964;28;20109;-78
2021/01/16 08:08:03;;;;;;;30.15;14.95;;;-2.00;99.90;;;;;;4971680;28;20062;-78
2021/01/16 08:10:29;;;;;;;28.60;14.90;;;-2.00;99.90;;;;;;4973012;28;20467;-78
2021/01/16 08:12:59;;;;;;;38.55;17.10;;;-2.00;99.90;;;;;;4972384;28;20118;-78
2021/01/16 08:15:30;;;;;;;29.35;15.40;;;-2.00;99.90;;;;;;4972916;28;20027;-78
2021/01/16 08:17:58;;;;;;;37.20;15.98;;;-2.00;99.90;;;;;;4972859;28;20031;-78
2021/01/16 08:20:29;;;;;;;30.80;15.82;;;-2.00;99.90;;;;;;4971793;28;20026;-78
2021/01/16 08:22:57;;;;;;;35.28;15.73;;;-2.00;99.90;;;;;;4973075;28;20113;-79
2021/01/16 08:25:29;;;;;;;34.40;15.13;;;-1.90;99.90;;;;;;4972463;28;20387;-79
2021/01/16 08:27:57;;;;;;;36.23;15.57;;;-1.90;99.90;;;;;;4972833;28;20033;-79
2021/01/16 08:30:24;;;;;;;32.75;16.30;;;-1.80;99.90;;;;;;4972831;28;20035;-78
2021/01/16 08:33:00;;;;;;;29.83;14.07;;;-1.80;99.90;;;;;;4972879;28;20407;-77
2021/01/16 08:35:27;;;;;;;30.25;15.50;;;-1.80;99.90;;;;;;4971238;28;20023;-76
2021/01/16 08:37:53;;;;;;;32.28;15.40;;;-1.80;99.90;;;;;;4971530;28;20027;-77
2021/01/16 08:40:36;;;;;;;36.28;16.00;;;-1.80;99.90;;;;;;4972770;28;20538;-78
2021/01/16 08:43:03;;;;;;;37.53;16.80;;;-1.70;99.90;;;;;;4971250;28;20027;-78
2021/01/16 08:45:28;;;;;;;36.30;15.93;;;-1.60;99.90;;;;;;4972583;28;20030;-77
2021/01/16 08:47:57;;;;;;;34.63;17.27;;;-1.50;99.90;;;;;;4972775;28;20077;-78
2021/01/16 08:50:34;;;;;;;42.67;19.00;;;-1.50;99.90;;;;;;4972767;28;20019;-77
2021/01/16 08:53:17;;;;;;;37.25;16.45;;;-1.40;99.90;;;;;;4972500;28;20455;-78
2021/01/16 08:55:43;;;;;;;32.33;16.05;;;-1.50;99.90;;;;;;4971323;28;20058;-77
2021/01/16 08:58:10;;;;;;;37.92;17.90;;;-1.50;99.90;;;;;;4972464;28;20117;-77
2021/01/16 09:00:39;;;;;;;31.38;15.35;;;-1.50;99.90;;;;;;4972996;28;20058;-78
2021/01/16 09:03:16;;;;;;;30.50;15.32;;;-1.40;99.90;;;;;;4972566;28;20475;-78
2021/01/16 09:05:42;;;;;;;32.17;15.65;;;-1.40;99.90;;;;;;4953194;28;20055;-78
2021/01/16 09:08:45;;;;;;;30.98;15.63;;;-1.30;99.90;;;;;;4957246;28;20026;-78
2021/01/16 09:11:13;;;;;;;29.27;14.65;;;-1.20;99.90;;;;;;4968762;28;20495;-78
2021/01/16 09:13:43;;;;;;;33.33;16.63;;;-1.10;99.90;;;;;;4972540;28;20034;-78
2021/01/16 09:16:29;;;;;;;32.10;15.88;;;-1.00;99.90;;;;;;4987343;28;20031;-79
2021/01/16 09:18:55;;;;;;;30.05;16.27;;;-0.80;99.90;;;;;;4972586;28;20023;-78
2021/01/16 09:21:24;;;;;;;32.33;16.60;;;-0.70;99.90;;;;;;4972241;28;20058;-78
2021/01/16 09:23:50;;;;;;;32.85;16.15;;;-0.50;99.90;;;;;;4974332;28;20026;-79
2021/01/16 09:26:18;;;;;;;27.05;14.30;;;-0.50;99.90;;;;;;4975953;28;20101;-80
2021/01/16 09:28:49;;;;;;;29.23;15.52;;;-0.50;99.90;;;;;;4976171;28;20038;-79
2021/01/16 09:31:42;;;;;;;30.38;15.68;;;-0.40;99.90;;;;;;4974695;28;20411;-79
2021/01/16 09:34:10;;;;;;;27.95;13.50;;;-0.40;99.90;;;;;;4964239;28;20062;-79
2021/01/16 09:36:55;;;;;;;30.65;15.13;;;-0.40;99.90;;;;;;4975889;28;20085;-77
2021/01/16 09:39:32;;;;;;;28.63;13.40;;;-0.40;99.90;;;;;;4974745;28;20396;-77
2021/01/16 09:42:19;;;;;;;23.95;13.25;;;-0.30;99.90;;;;;;4975608;28;20053;-78
2021/01/16 09:44:47;;;;;;;28.25;13.32;;;-0.30;99.90;;;;;;4990627;28;20030;-79
2021/01/16 09:47:27;;;;;;;36.42;13.52;;;-0.20;99.90;;;;;;4975861;28;20034;-79
2021/01/16 09:50:02;;;;;;;28.40;12.27;;;-0.20;99.90;;;;;;4975852;28;20027;-79
2021/01/16 09:52:31;;;;;;;22.45;12.40;;;-0.10;99.90;;;;;;4975641;28;20026;-78
2021/01/16 09:54:58;;;;;;;21.85;12.63;;;-0.10;99.90;;;;;;4974218;28;20035;-78
2021/01/16 09:57:43;;;;;;;29.67;14.10;;;0.00;99.90;;;;;;4974219;28;20031;-78
2021/01/16 10:00:26;;;;;;;21.02;12.55;;;-0.10;99.90;;;;;;4975584;28;20499;-78
2021/01/16 10:02:58;;;;;;;24.23;13.52;;;0.00;99.90;;;;;;4964580;28;20077;-78
2021/01/16 10:05:29;;;;;;;30.55;13.07;;;0.00;99.90;;;;;;4972861;28;20046;-77
2021/01/16 10:07:55;;;;;;;24.48;11.48;;;0.10;99.90;;;;;;4975244;28;20120;-77
2021/01/16 10:10:21;;;;;;;22.55;11.27;;;0.10;99.90;;;;;;4969279;28;20058;-78
2021/01/16 10:12:48;;;;;;;32.85;12.82;;;0.10;99.90;;;;;;4974489;28;20062;-77
2021/01/16 10:15:18;;;;;;;22.73;12.30;;;0.10;99.90;;;;;;4975228;28;20423;-78
2021/01/16 10:17:54;;;;;;;19.90;10.43;;;0.10;99.90;;;;;;4974054;28;20512;-78
2021/01/16 10:20:20;;;;;;;27.05;12.35;;;0.20;99.90;;;;;;4975206;28;20038;-78
2021/01/16 10:22:53;;;;;;;23.42;11.27;;;0.20;99.90;;;;;;4974832;28;20027;-76
2021/01/16 10:25:20;;;;;;;19.90;10.85;;;0.20;99.90;;;;;;4974950;28;20022;-78
2021/01/16 10:27:52;;;;;;;22.08;11.82;;;0.20;99.90;;;;;;4974885;28;20391;-77
2021/01/16 10:30:20;;;;;;;18.08;10.13;;;0.10;99.90;;;;;;4975055;28;20023;-76
2021/01/16 10:32:47;;;;;;;18.75;10.90;;;0.10;99.90;;;;;;4974860;28;20030;-76
2021/01/16 10:35:21;;;;;;;21.35;11.60;;;0.20;99.90;;;;;;4972933;28;20081;-78
2021/01/16 10:37:48;;;;;;;21.20;10.68;;;0.30;99.90;;;;;;4970210;28;20086;-77
2021/01/16 10:40:14;;;;;;;20.42;9.88;;;0.30;99.90;;;;;;4955487;29;20023;-77
2021/01/16 10:42:48;;;;;;;22.15;11.23;;;0.30;99.90;;;;;;4968148;28;20054;-77
2021/01/16 10:45:16;;;;;;;21.45;10.48;;;0.30;99.90;;;;;;4974574;28;20110;-78
2021/01/16 10:47:43;;;;;;;24.58;11.43;;;0.20;99.90;;;;;;4974453;28;20042;-78
2021/01/16 10:50:15;;;;;;;21.90;11.43;;;0.30;99.90;;;;;;4974855;28;20045;-78
2021/01/16 10:52:41;;;;;;;32.80;12.43;;;0.30;99.90;;;;;;4974283;28;20027;-78
2021/01/16 10:55:11;;;;;;;28.50;11.93;;;0.30;99.90;;;;;;4974427;28;20034;-78
2021/01/16 10:57:40;;;;;;;20.15;11.02;;;0.30;99.90;;;;;;4974243;28;20035;-78
2021/01/16 11:00:13;;;;;;;22.55;10.85;;;0.30;99.90;;;;;;4973340;28;20027;-80
2021/01/16 11:02:47;;;;;;;20.60;11.32;;;0.30;99.90;;;;;;4974239;28;20023;-80
2021/01/16 11:05:15;;;;;;;30.30;11.60;;;0.30;99.90;;;;;;4973003;28;20035;-80
2021/01/16 11:07:43;;;;;;;27.20;13.13;;;0.30;99.90;;;;;;4969450;28;20062;-80
2021/01/16 11:10:10;;;;;;;25.48;11.90;;;0.40;99.90;;;;;;4954792;29;20032;-78
2021/01/16 11:12:37;;;;;;;37.33;12.20;;;0.50;99.90;;;;;;4954906;28;20584;-79
2021/01/16 11:15:22;;;;;;;23.05;11.65;;;0.70;99.90;;;;;;4953509;29;20027;-78
2021/01/16 11:17:52;;;;;;;24.35;11.93;;;0.80;99.90;;;;;;4964217;28;20062;-79
2021/01/16 11:20:24;;;;;;;23.13;11.88;;;0.90;99.90;;;;;;4974245;28;20080;-79
2021/01/16 11:23:08;;;;;;;21.67;12.15;;;0.90;99.90;;;;;;4973951;28;20027;-79
2021/01/16 11:25:46;;;;;;;26.40;13.55;;;0.90;99.90;;;;;;4972679;28;20031;-79
2021/01/16 11:28:23;;;;;;;30.40;12.75;;;0.90;99.90;;;;;;4973384;28;20431;-78
2021/01/16 11:30:50;;;;;;;23.38;12.05;;;0.90;99.90;;;;;;4973857;28;20034;-79
2021/01/16 11:33:25;;;;;;;25.38;12.57;;;0.90;99.90;;;;;;4972625;28;20031;-79
2021/01/16 11:36:15;;;;;;;28.70;12.85;;;1.00;99.90;;;;;;4973676;28;20023;-79
2021/01/16 11:38:45;;;;;;;21.13;12.55;;;1.00;99.90;;;;;;4971994;28;20509;-79
2021/01/16 11:41:13;;;;;;;27.33;12.15;;;1.00;99.90;;;;;;4973414;28;20480;-79
2021/01/16 11:43:39;;;;;;;26.85;12.55;;;1.00;99.90;;;;;;4973671;28;20037;-78
2021/01/16 11:46:10;;;;;;;26.63;12.50;;;1.00;99.90;;;;;;4968463;28;20035;-79
2021/01/16 11:48:37;;;;;;;20.88;12.93;;;1.10;99.90;;;;;;4969169;28;20031;-79
2021/01/16 11:51:19;;;;;;;24.73;12.80;;;1.10;99.90;;;;;;4952949;28;20400;-79
2021/01/16 11:53:50;;;;;;;28.67;13.48;;;1.10;99.90;;;;;;4954044;28;20043;-79
2021/01/16 11:56:19;;;;;;;25.80;13.13;;;1.20;99.90;;;;;;4966852;28;20042;-79
2021/01/16 11:58:46;;;;;;;27.52;13.90;;;1.20;99.90;;;;;;4973516;28;20031;-79
2021/01/16 12:01:15;;;;;;;33.10;14.25;;;1.20;99.90;;;;;;4972063;28;20081;-79
2021/01/16 12:03:44;;;;;;;31.27;14.52;;;1.20;99.90;;;;;;4973330;28;20119;-79
2021/01/16 12:06:16;;;;;;;43.05;14.32;;;1.10;99.90;;;;;;4973095;28;20022;-80
2021/01/16 12:08:47;;;;;;;26.02;13.93;;;1.10;99.90;;;;;;4973354;28;20023;-79
2021/01/16 12:11:14;;;;;;;28.23;14.43;;;1.10;99.90;;;;;;4972569;28;20026;-79
2021/01/16 12:13:42;;;;;;;29.38;14.95;;;1.10;99.90;;;;;;4973129;28;20031;-79
2021/01/16 12:16:11;;;;;;;27.15;13.63;;;1.20;99.90;;;;;;4968427;28;20050;-79
2021/01/16 12:18:37;;;;;;;25.13;13.90;;;1.20;99.90;;;;;;4953771;29;20031;-79
2021/01/16 12:21:03;;;;;;;34.85;14.68;;;1.20;99.90;;;;;;4952372;28;20030;-79
2021/01/16 12:23:39;;;;;;;25.45;14.70;;;1.20;99.90;;;;;;4953015;29;20027;-78
2021/01/16 12:26:08;;;;;;;29.08;15.73;;;1.20;99.90;;;;;;4957739;28;20030;-78
2021/01/16 12:28:38;;;;;;;27.27;14.40;;;1.20;99.90;;;;;;4973008;28;20150;-77
2021/01/16 12:31:05;;;;;;;34.17;15.93;;;1.00;99.90;;;;;;4972988;28;20058;-78
2021/01/16 12:33:33;;;;;;;30.65;15.45;;;1.10;99.90;;;;;;4971611;28;20023;-78
2021/01/16 12:36:08;;;;;;;33.88;15.57;;;1.00;99.90;;;;;;4972584;28;20023;-78
2021/01/16 12:38:34;;;;;;;25.42;13.88;;;1.10;99.90;;;;;;4972726;28;20062;-78
2021/01/16 12:41:00;;;;;;;27.45;15.05;;;1.00;99.90;;;;;;4971497;28;20113;-78
2021/01/16 12:43:26;;;;;;;28.95;15.30;;;1.00;99.90;;;;;;4971682;28;20514;-79
2021/01/16 12:45:52;;;;;;;34.50;16.38;;;1.00;99.90;;;;;;4971428;28;20034;-78
2021/01/16 12:48:18;;;;;;;31.92;16.50;;;1.10;99.90;;;;;;4972537;28;20031;-79
2021/01/16 12:50:45;;;;;;;37.85;15.65;;;1.00;99.90;;;;;;4971385;28;20122;-78